代售商品

 員林香純滴雞精
介紹說明  買十送二,滿3000免運費

今日:(07-29):243    昨天:207    總計:392986
回饋金贊助網站→買滴雞精  買書
關鍵字查詢:
第 1 頁(共 51 頁) 總筆數1522筆 頁次:[1]   2   3   4   5   6   7   8   9   10   ....

1  ASP出現【區塊無法放在另一個 Script 區塊內】的解決方法  (2016-07-28 14:29:33)(查看 64 - 30 (bot) - 34 - 10 (other) 次)
2  windows 2008 server如何開啟遠端桌面功能  (2016-07-27 15:55:17)(查看 68 - 28 (bot) - 40 - 15 (other) 次)
3  ESXI 連線過程出現錯誤(The VMRC console has disconnected.. attempting to reconnect)  (2016-07-27 14:24:47)(查看 20 - 12 (bot) - 8 - 10 (other) 次)
4  windows 2008 server產製「金鑰」  (2016-07-13 10:51:22)(查看 718 - 314 (bot) - 404 - 46 (other) 次)
5  OpenSSL在windows 2008 server出現版本不符合【未尚找到原因】  (2016-07-13 10:33:21)(查看 34 - 20 (bot) - 14 - 35 (other) 次)
6  FortiWeb匯入憑證  (2016-07-12 15:14:59)(查看 146 - 106 (bot) - 40 - 42 (other) 次)
7  windows 2003 server 匯出憑證  (2016-07-12 14:44:08)(查看 32 - 22 (bot) - 10 - 33 (other) 次)
8  blogger出現【含重複的標題標記的網頁】【尚未找到解法】  (2016-07-11 21:46:16)(查看 115 - 72 (bot) - 43 - 52 (other) 次)
9  如何利用peazip來解決中文檔案壓縮檔案會變成亂碼  (2016-07-11 20:19:01)(查看 48 - 35 (bot) - 13 - 33 (other) 次)
10  如何利用Excel製作出日曆型的待辦事項  (2016-07-11 09:24:04)(查看 156 - 80 (bot) - 76 - 49 (other) 次)


11  windows 2003 server 安裝伺服器憑證  (2016-07-07 15:12:59)(查看 196 - 113 (bot) - 83 - 48 (other) 次)
12  windows 2003 server 安裝根憑證  (2016-07-07 14:46:26)(查看 54 - 45 (bot) - 9 - 43 (other) 次)
13  windows 2003 server 安裝中繼憑證  (2016-07-07 14:44:31)(查看 53 - 43 (bot) - 10 - 35 (other) 次)
14  windows 2003 server 新增憑證管理單元  (2016-07-07 13:52:56)(查看 34 - 24 (bot) - 10 - 37 (other) 次)
15  憑證請求檔(CSR)上傳  (2016-07-07 11:39:54)(查看 43 - 28 (bot) - 15 - 50 (other) 次)
16  windows server 2003 產生「憑證請求檔(CSR)」  (2016-07-07 10:16:21)(查看 37 - 23 (bot) - 14 - 42 (other) 次)
17  Excel多條件查詢使用sumifs跟sumproduct  (2016-07-06 19:01:11)(查看 158 - 57 (bot) - 101 - 43 (other) 次)
18  竹北璽子牛肉麵斤餅專賣店  (2016-07-03 15:17:36)(查看 267 - 162 (bot) - 105 - 56 (other) 次)
19  湖口山丘上景觀咖啡館  (2016-06-29 21:38:57)(查看 216 - 128 (bot) - 88 - 70 (other) 次)
20  學科(21500)餐飲服務丙級題庫830題(所有題目)  (2016-06-29 20:29:29)(查看 50 - 40 (bot) - 10 - 51 (other) 次)


21  windows server 2012 R2安裝步驟  (2016-06-29 09:11:03)(查看 77 - 50 (bot) - 27 - 63 (other) 次)
22  vSphereClient如何使用ISO檔案安裝作業系統  (2016-06-29 09:00:36)(查看 64 - 50 (bot) - 14 - 48 (other) 次)
23  如何在Excel中顯示英文的星期  (2016-06-26 15:59:11)(查看 170 - 89 (bot) - 81 - 60 (other) 次)
24  如何快速將半型數字轉換成全型數字  (2016-06-24 15:35:10)(查看 204 - 101 (bot) - 103 - 61 (other) 次)
25  解決VS.NET二層下拉選單無法顯示  (2016-06-23 16:16:58)(查看 117 - 69 (bot) - 48 - 65 (other) 次)
26  Centos如何避免 Apache 網站的目錄內容顯示出來  (2016-06-22 13:51:53)(查看 140 - 86 (bot) - 54 - 61 (other) 次)
27  WordPress【外掛AddToAny】文章加入社群分享鈕LINE  (2016-06-21 16:39:25)(查看 182 - 128 (bot) - 54 - 75 (other) 次)
28  Excel使用edate計算是否满20歲  (2016-06-21 14:33:33)(查看 121 - 47 (bot) - 74 - 83 (other) 次)
29  如何還原有中文網址的超連結(URL Decoder/Encoder)  (2016-06-20 22:30:13)(查看 136 - 60 (bot) - 76 - 63 (other) 次)
30  如何在網頁上顯示圖表(雷達圖及長條圖)  (2016-06-15 11:02:47)(查看 265 - 154 (bot) - 111 - 97 (other) 次)


查看 3985 - 2216 - 1769 - 1476 - 396725 次
第 1 頁(共 51 頁) 總筆數1522筆 頁次:[1]   2   3   4   5   6   7   8   9   10   ....